sensor_id;sensor_type;location;lat;lon;timestamp;pressure;altitude;pressure_sealevel;temperature;humidity
70781;BME280;59514;48.810;2.134;2023-05-12T00:00:48;100348.69;;;11.90;85.66
70781;BME280;59514;48.810;2.134;2023-05-12T00:03:13;100343.66;;;11.93;84.59
70781;BME280;59514;48.810;2.134;2023-05-12T00:05:38;100342.28;;;11.91;85.13
70781;BME280;59514;48.810;2.134;2023-05-12T00:08:04;100339.69;;;11.96;85.23
70781;BME280;59514;48.810;2.134;2023-05-12T00:10:29;100342.50;;;12.01;85.13
70781;BME280;59514;48.810;2.134;2023-05-12T00:12:55;100341.91;;;11.99;84.96
70781;BME280;59514;48.810;2.134;2023-05-12T00:15:21;100334.31;;;11.96;85.56
70781;BME280;59514;48.810;2.134;2023-05-12T00:17:46;100333.72;;;11.94;86.50
70781;BME280;59514;48.810;2.134;2023-05-12T00:20:12;100335.81;;;11.92;87.19
70781;BME280;59514;48.810;2.134;2023-05-12T00:22:38;100341.91;;;11.76;88.04
70781;BME280;59514;48.810;2.134;2023-05-12T00:25:03;100330.53;;;11.62;88.53
70781;BME280;59514;48.810;2.134;2023-05-12T00:27:29;100333.44;;;11.61;89.31
70781;BME280;59514;48.810;2.134;2023-05-12T00:29:56;100329.78;;;11.44;90.26
70781;BME280;59514;48.810;2.134;2023-05-12T00:32:22;100330.50;;;11.39;90.85
70781;BME280;59514;48.810;2.134;2023-05-12T00:34:48;100333.72;;;11.29;92.05
70781;BME280;59514;48.810;2.134;2023-05-12T00:37:14;100331.88;;;11.30;91.31
70781;BME280;59514;48.810;2.134;2023-05-12T00:39:39;100332.88;;;11.17;92.33
70781;BME280;59514;48.810;2.134;2023-05-12T00:42:05;100334.94;;;11.04;93.06
70781;BME280;59514;48.810;2.134;2023-05-12T00:44:30;100332.63;;;11.07;94.49
70781;BME280;59514;48.810;2.134;2023-05-12T00:46:55;100329.69;;;10.97;94.72
70781;BME280;59514;48.810;2.134;2023-05-12T00:49:21;100336.44;;;11.00;94.59
70781;BME280;59514;48.810;2.134;2023-05-12T00:51:47;100334.16;;;11.03;93.82
70781;BME280;59514;48.810;2.134;2023-05-12T00:54:12;100332.16;;;11.10;94.39
70781;BME280;59514;48.810;2.134;2023-05-12T00:56:38;100331.56;;;11.08;95.02
70781;BME280;59514;48.810;2.134;2023-05-12T00:59:06;100331.94;;;11.12;94.76
70781;BME280;59514;48.810;2.134;2023-05-12T01:01:33;100325.88;;;11.16;93.10
70781;BME280;59514;48.810;2.134;2023-05-12T01:03:59;100326.47;;;11.18;91.11
70781;BME280;59514;48.810;2.134;2023-05-12T01:06:28;100324.88;;;11.29;91.38
70781;BME280;59514;48.810;2.134;2023-05-12T01:08:57;100330.94;;;11.36;90.74
70781;BME280;59514;48.810;2.134;2023-05-12T01:11:23;100326.66;;;11.47;88.78
70781;BME280;59514;48.810;2.134;2023-05-12T01:13:48;100315.78;;;11.53;87.85
70781;BME280;59514;48.810;2.134;2023-05-12T01:16:14;100318.84;;;11.57;87.73
70781;BME280;59514;48.810;2.134;2023-05-12T01:18:42;100318.84;;;11.57;85.55
70781;BME280;59514;48.810;2.134;2023-05-12T01:21:13;100319.53;;;11.64;85.60
70781;BME280;59514;48.810;2.134;2023-05-12T01:23:43;100327.75;;;11.69;84.48
70781;BME280;59514;48.810;2.134;2023-05-12T01:26:11;100327.88;;;11.74;85.28
70781;BME280;59514;48.810;2.134;2023-05-12T01:28:37;100323.56;;;11.73;85.02
70781;BME280;59514;48.810;2.134;2023-05-12T01:31:06;100320.38;;;11.76;84.82
70781;BME280;59514;48.810;2.134;2023-05-12T01:33:33;100328.78;;;11.68;83.73
70781;BME280;59514;48.810;2.134;2023-05-12T01:35:58;100325.75;;;11.76;84.40
70781;BME280;59514;48.810;2.134;2023-05-12T01:38:24;100320.38;;;11.76;84.73
70781;BME280;59514;48.810;2.134;2023-05-12T01:40:49;100318.50;;;11.65;84.69
70781;BME280;59514;48.810;2.134;2023-05-12T01:43:14;100315.47;;;11.73;83.98
70781;BME280;59514;48.810;2.134;2023-05-12T01:45:40;100313.56;;;11.62;83.34
70781;BME280;59514;48.810;2.134;2023-05-12T01:48:05;100311.59;;;11.57;82.35
70781;BME280;59514;48.810;2.134;2023-05-12T01:50:31;100312.63;;;11.56;81.94
70781;BME280;59514;48.810;2.134;2023-05-12T01:52:56;100315.31;;;11.56;82.49
70781;BME280;59514;48.810;2.134;2023-05-12T01:55:21;100314.72;;;11.54;82.99
70781;BME280;59514;48.810;2.134;2023-05-12T01:57:47;100313.22;;;11.58;83.17
70781;BME280;59514;48.810;2.134;2023-05-12T02:00:12;100317.44;;;11.66;81.37
70781;BME280;59514;48.810;2.134;2023-05-12T02:02:37;100314.50;;;11.56;81.02
70781;BME280;59514;48.810;2.134;2023-05-12T02:05:03;100315.22;;;11.63;81.37
70781;BME280;59514;48.810;2.134;2023-05-12T02:07:28;100313.22;;;11.58;81.30
70781;BME280;59514;48.810;2.134;2023-05-12T02:09:54;100311.22;;;11.54;80.89
70781;BME280;59514;48.810;2.134;2023-05-12T02:12:19;100312.88;;;11.55;80.55
70781;BME280;59514;48.810;2.134;2023-05-12T02:14:45;100311.94;;;11.49;80.32
70781;BME280;59514;48.810;2.134;2023-05-12T02:17:10;100312.84;;;11.43;81.13
70781;BME280;59514;48.810;2.134;2023-05-12T02:19:35;100309.44;;;11.48;80.83
70781;BME280;59514;48.810;2.134;2023-05-12T02:22:01;100317.16;;;11.44;80.55
70781;BME280;59514;48.810;2.134;2023-05-12T02:24:26;100311.94;;;11.49;81.02
70781;BME280;59514;48.810;2.134;2023-05-12T02:26:51;100308.41;;;11.49;80.40
70781;BME280;59514;48.810;2.134;2023-05-12T02:29:17;100313.53;;;11.39;80.92
70781;BME280;59514;48.810;2.134;2023-05-12T02:31:42;100314.22;;;11.34;80.95
70781;BME280;59514;48.810;2.134;2023-05-12T02:34:08;100316.47;;;11.37;80.62
70781;BME280;59514;48.810;2.134;2023-05-12T02:36:33;100311.19;;;11.31;79.78
70781;BME280;59514;48.810;2.134;2023-05-12T02:38:58;100311.97;;;11.19;79.65
70781;BME280;59514;48.810;2.134;2023-05-12T02:41:24;100316.31;;;11.20;79.35
70781;BME280;59514;48.810;2.134;2023-05-12T02:43:49;100314.31;;;11.16;79.65
70781;BME280;59514;48.810;2.134;2023-05-12T02:46:14;100307.03;;;11.05;79.60
70781;BME280;59514;48.810;2.134;2023-05-12T02:48:39;100319.28;;;11.01;80.37
70781;BME280;59514;48.810;2.134;2023-05-12T02:51:05;100313.69;;;11.02;80.17
70781;BME280;59514;48.810;2.134;2023-05-12T02:53:30;100320.22;;;10.95;81.04
70781;BME280;59514;48.810;2.134;2023-05-12T02:55:55;100319.25;;;10.89;80.72
70781;BME280;59514;48.810;2.134;2023-05-12T02:58:21;100321.72;;;10.91;81.51
70781;BME280;59514;48.810;2.134;2023-05-12T03:00:46;100317.75;;;10.93;81.45
70781;BME280;59514;48.810;2.134;2023-05-12T03:03:12;100314.91;;;10.88;81.57
70781;BME280;59514;48.810;2.134;2023-05-12T03:05:37;100315.66;;;10.95;81.79
70781;BME280;59514;48.810;2.134;2023-05-12T03:08:03;100311.06;;;10.84;81.58
70781;BME280;59514;48.810;2.134;2023-05-12T03:10:28;100324.34;;;10.79;82.74
70781;BME280;59514;48.810;2.134;2023-05-12T03:12:53;100312.91;;;10.84;82.12
70781;BME280;59514;48.810;2.134;2023-05-12T03:15:19;100313.97;;;10.83;83.06
70781;BME280;59514;48.810;2.134;2023-05-12T03:17:44;100309.28;;;10.78;82.88
70781;BME280;59514;48.810;2.134;2023-05-12T03:20:10;100312.56;;;10.80;82.35
70781;BME280;59514;48.810;2.134;2023-05-12T03:22:35;100313.63;;;10.79;83.11
70781;BME280;59514;48.810;2.134;2023-05-12T03:25:00;100316.91;;;10.81;82.31
70781;BME280;59514;48.810;2.134;2023-05-12T03:27:27;100314.66;;;10.78;82.67
70781;BME280;59514;48.810;2.134;2023-05-12T03:29:53;100315.97;;;10.58;82.64
70781;BME280;59514;48.810;2.134;2023-05-12T03:32:18;100325.88;;;10.57;83.11
70781;BME280;59514;48.810;2.134;2023-05-12T03:34:44;100316.88;;;10.52;82.86
70781;BME280;59514;48.810;2.134;2023-05-12T03:37:09;100313.66;;;10.43;83.43
70781;BME280;59514;48.810;2.134;2023-05-12T03:39:34;100319.41;;;10.47;84.06
70781;BME280;59514;48.810;2.134;2023-05-12T03:41:59;100326.41;;;10.48;83.73
70781;BME280;59514;48.810;2.134;2023-05-12T03:44:25;100321.84;;;10.48;83.22
70781;BME280;59514;48.810;2.134;2023-05-12T03:46:50;100321.72;;;10.43;82.65
70781;BME280;59514;48.810;2.134;2023-05-12T03:49:15;100322.03;;;10.35;82.57
70781;BME280;59514;48.810;2.134;2023-05-12T03:51:41;100323.06;;;10.34;82.17
70781;BME280;59514;48.810;2.134;2023-05-12T03:54:06;100323.16;;;10.27;82.06
70781;BME280;59514;48.810;2.134;2023-05-12T03:56:31;100322.69;;;10.30;81.88
70781;BME280;59514;48.810;2.134;2023-05-12T03:58:57;100325.22;;;10.44;82.15
70781;BME280;59514;48.810;2.134;2023-05-12T04:01:22;100319.63;;;10.27;81.30
70781;BME280;59514;48.810;2.134;2023-05-12T04:03:47;100323.59;;;10.24;81.59
70781;BME280;59514;48.810;2.134;2023-05-12T04:06:13;100321.28;;;10.28;80.94
70781;BME280;59514;48.810;2.134;2023-05-12T04:08:38;100321.44;;;10.08;81.70
70781;BME280;59514;48.810;2.134;2023-05-12T04:11:03;100316.00;;;9.97;83.01
70781;BME280;59514;48.810;2.134;2023-05-12T04:13:29;100319.47;;;10.04;83.06
70781;BME280;59514;48.810;2.134;2023-05-12T04:15:59;100315.94;;;9.85;82.11
70781;BME280;59514;48.810;2.134;2023-05-12T04:18:25;100319.44;;;9.86;84.20
70781;BME280;59514;48.810;2.134;2023-05-12T04:20:52;100321.03;;;9.69;84.66
70781;BME280;59514;48.810;2.134;2023-05-12T04:23:18;100311.72;;;9.46;86.37
70781;BME280;59514;48.810;2.134;2023-05-12T04:25:43;100310.97;;;9.39;86.33
70781;BME280;59514;48.810;2.134;2023-05-12T04:28:09;100317.16;;;9.40;86.06
70781;BME280;59514;48.810;2.134;2023-05-12T04:30:35;100322.25;;;9.23;87.10
70781;BME280;59514;48.810;2.134;2023-05-12T04:33:03;100328.91;;;9.14;87.32
70781;BME280;59514;48.810;2.134;2023-05-12T04:35:28;100333.06;;;9.10;88.47
70781;BME280;59514;48.810;2.134;2023-05-12T04:37:54;100326.25;;;9.08;89.01
70781;BME280;59514;48.810;2.134;2023-05-12T04:40:19;100339.44;;;9.09;88.90
70781;BME280;59514;48.810;2.134;2023-05-12T04:42:45;100334.25;;;9.14;88.88
70781;BME280;59514;48.810;2.134;2023-05-12T04:45:10;100338.41;;;9.10;89.21
70781;BME280;59514;48.810;2.134;2023-05-12T04:47:36;100341.13;;;9.04;89.39
70781;BME280;59514;48.810;2.134;2023-05-12T04:50:01;100338.44;;;9.04;88.98
70781;BME280;59514;48.810;2.134;2023-05-12T04:52:26;100341.75;;;8.99;89.34
70781;BME280;59514;48.810;2.134;2023-05-12T04:54:52;100342.63;;;8.93;89.71
70781;BME280;59514;48.810;2.134;2023-05-12T04:57:17;100348.81;;;8.87;90.81
70781;BME280;59514;48.810;2.134;2023-05-12T04:59:42;100347.63;;;8.83;91.61
70781;BME280;59514;48.810;2.134;2023-05-12T05:02:08;100350.25;;;8.90;92.19
70781;BME280;59514;48.810;2.134;2023-05-12T05:04:33;100358.28;;;8.90;91.67
70781;BME280;59514;48.810;2.134;2023-05-12T05:06:59;100358.75;;;8.80;92.25
70781;BME280;59514;48.810;2.134;2023-05-12T05:09:24;100359.19;;;8.77;93.12
70781;BME280;59514;48.810;2.134;2023-05-12T05:11:49;100356.31;;;8.79;92.44
70781;BME280;59514;48.810;2.134;2023-05-12T05:14:15;100348.09;;;8.67;92.88
70781;BME280;59514;48.810;2.134;2023-05-12T05:16:40;100354.06;;;8.69;93.17
70781;BME280;59514;48.810;2.134;2023-05-12T05:19:06;100360.47;;;8.68;94.70
70781;BME280;59514;48.810;2.134;2023-05-12T05:21:31;100366.22;;;8.72;94.16
70781;BME280;59514;48.810;2.134;2023-05-12T05:23:56;100362.09;;;8.69;93.72
70781;BME280;59514;48.810;2.134;2023-05-12T05:26:22;100365.44;;;8.58;95.58
70781;BME280;59514;48.810;2.134;2023-05-12T05:28:47;100368.28;;;8.63;96.03
70781;BME280;59514;48.810;2.134;2023-05-12T05:31:16;100362.94;;;8.63;95.92
70781;BME280;59514;48.810;2.134;2023-05-12T05:33:42;100367.50;;;8.62;96.08
70781;BME280;59514;48.810;2.134;2023-05-12T05:36:08;100373.88;;;8.61;96.14
70781;BME280;59514;48.810;2.134;2023-05-12T05:38:33;100376.09;;;8.71;95.52
70781;BME280;59514;48.810;2.134;2023-05-12T05:40:59;100377.31;;;8.75;96.11
70781;BME280;59514;48.810;2.134;2023-05-12T05:43:24;100379.38;;;8.73;95.96
70781;BME280;59514;48.810;2.134;2023-05-12T05:45:50;100377.66;;;8.85;96.18
70781;BME280;59514;48.810;2.134;2023-05-12T05:48:15;100379.31;;;8.86;95.23
70781;BME280;59514;48.810;2.134;2023-05-12T05:50:41;100375.59;;;8.87;95.42
70781;BME280;59514;48.810;2.134;2023-05-12T05:53:06;100379.31;;;8.93;95.79
70781;BME280;59514;48.810;2.134;2023-05-12T05:55:32;100379.06;;;9.01;96.28
70781;BME280;59514;48.810;2.134;2023-05-12T05:57:57;100368.13;;;9.02;94.78
70781;BME280;59514;48.810;2.134;2023-05-12T06:00:22;100375.50;;;9.07;95.03
70781;BME280;59514;48.810;2.134;2023-05-12T06:02:48;100379.59;;;9.09;95.00
70781;BME280;59514;48.810;2.134;2023-05-12T06:05:13;100371.34;;;9.11;95.42
70781;BME280;59514;48.810;2.134;2023-05-12T06:07:38;100381.19;;;9.17;94.52
70781;BME280;59514;48.810;2.134;2023-05-12T06:10:05;100376.66;;;9.17;94.73
70781;BME280;59514;48.810;2.134;2023-05-12T06:12:30;100379.97;;;9.19;95.26
70781;BME280;59514;48.810;2.134;2023-05-12T06:14:55;100373.31;;;9.28;94.78
70781;BME280;59514;48.810;2.134;2023-05-12T06:17:21;100375.56;;;9.31;94.76
70781;BME280;59514;48.810;2.134;2023-05-12T06:19:46;100374.47;;;9.39;94.37
70781;BME280;59514;48.810;2.134;2023-05-12T06:22:13;100379.34;;;9.48;94.48
70781;BME280;59514;48.810;2.134;2023-05-12T06:24:40;100383.81;;;9.54;93.89
70781;BME280;59514;48.810;2.134;2023-05-12T06:27:06;100377.78;;;9.66;93.23
70781;BME280;59514;48.810;2.134;2023-05-12T06:29:32;100373.66;;;9.88;89.50
70781;BME280;59514;48.810;2.134;2023-05-12T06:31:57;100377.75;;;9.90;89.70
70781;BME280;59514;48.810;2.134;2023-05-12T06:34:22;100377.19;;;10.06;89.03
70781;BME280;59514;48.810;2.134;2023-05-12T06:36:48;100371.75;;;10.19;88.07
70781;BME280;59514;48.810;2.134;2023-05-12T06:39:13;100379.72;;;10.44;84.45
70781;BME280;59514;48.810;2.134;2023-05-12T06:41:39;100378.91;;;10.62;80.43
70781;BME280;59514;48.810;2.134;2023-05-12T06:44:04;100379.09;;;10.78;80.54
70781;BME280;59514;48.810;2.134;2023-05-12T06:46:31;100376.16;;;10.98;74.80
70781;BME280;59514;48.810;2.134;2023-05-12T06:48:56;100371.53;;;11.05;75.63
70781;BME280;59514;48.810;2.134;2023-05-12T06:51:22;100379.50;;;11.11;77.66
70781;BME280;59514;48.810;2.134;2023-05-12T06:53:47;100374.16;;;11.23;74.75
70781;BME280;59514;48.810;2.134;2023-05-12T06:56:12;100374.03;;;11.29;74.06
70781;BME280;59514;48.810;2.134;2023-05-12T06:58:41;100378.06;;;11.39;75.56
70781;BME280;59514;48.810;2.134;2023-05-12T07:01:07;100389.06;;;11.49;74.68
70781;BME280;59514;48.810;2.134;2023-05-12T07:03:32;100380.31;;;11.53;73.83
70781;BME280;59514;48.810;2.134;2023-05-12T07:05:58;100378.09;;;11.62;74.07
70781;BME280;59514;48.810;2.134;2023-05-12T07:08:23;100380.16;;;11.78;74.23
70781;BME280;59514;48.810;2.134;2023-05-12T07:10:48;100376.53;;;11.84;74.13
70781;BME280;59514;48.810;2.134;2023-05-12T07:13:14;100373.97;;;11.89;74.38
70781;BME280;59514;48.810;2.134;2023-05-12T07:15:39;100370.34;;;11.95;74.35
70781;BME280;59514;48.810;2.134;2023-05-12T07:18:04;100377.94;;;12.09;74.33
70781;BME280;59514;48.810;2.134;2023-05-12T07:20:30;100374.78;;;12.13;74.65
70781;BME280;59514;48.810;2.134;2023-05-12T07:22:55;100371.59;;;12.27;74.46
70781;BME280;59514;48.810;2.134;2023-05-12T07:25:21;100369.63;;;12.34;75.29
70781;BME280;59514;48.810;2.134;2023-05-12T07:27:46;100374.41;;;12.32;76.07
70781;BME280;59514;48.810;2.134;2023-05-12T07:30:12;100374.16;;;12.45;76.88
70781;BME280;59514;48.810;2.134;2023-05-12T07:32:38;100373.19;;;12.63;75.93
70781;BME280;59514;48.810;2.134;2023-05-12T07:35:03;100361.44;;;12.69;75.34
70781;BME280;59514;48.810;2.134;2023-05-12T07:37:29;100361.69;;;12.67;75.67
70781;BME280;59514;48.810;2.134;2023-05-12T07:39:54;100363.56;;;12.78;74.91
70781;BME280;59514;48.810;2.134;2023-05-12T07:42:20;100363.38;;;12.85;75.21
70781;BME280;59514;48.810;2.134;2023-05-12T07:44:46;100363.59;;;12.95;75.50
70781;BME280;59514;48.810;2.134;2023-05-12T07:47:11;100360.06;;;13.06;74.34
70781;BME280;59514;48.810;2.134;2023-05-12T07:49:37;100367.09;;;13.07;74.24
70781;BME280;59514;48.810;2.134;2023-05-12T07:52:02;100361.75;;;13.24;74.07
70781;BME280;59514;48.810;2.134;2023-05-12T07:54:28;100362.97;;;13.33;74.39
70781;BME280;59514;48.810;2.134;2023-05-12T07:56:53;100356.13;;;13.42;73.77
70781;BME280;59514;48.810;2.134;2023-05-12T07:59:18;100360.63;;;13.53;72.66
70781;BME280;59514;48.810;2.134;2023-05-12T08:01:43;100360.13;;;13.72;72.16
70781;BME280;59514;48.810;2.134;2023-05-12T08:04:09;100355.06;;;13.76;71.68
70781;BME280;59514;48.810;2.134;2023-05-12T08:06:34;100356.56;;;13.83;70.79
70781;BME280;59514;48.810;2.134;2023-05-12T08:09:00;100362.25;;;13.70;70.43
70781;BME280;59514;48.810;2.134;2023-05-12T08:11:25;100362.31;;;13.42;71.29
70781;BME280;59514;48.810;2.134;2023-05-12T08:13:51;100363.91;;;13.55;72.78
70781;BME280;59514;48.810;2.134;2023-05-12T08:16:16;100372.41;;;13.63;72.37
70781;BME280;59514;48.810;2.134;2023-05-12T08:18:42;100365.53;;;13.72;72.79
70781;BME280;59514;48.810;2.134;2023-05-12T08:21:07;100364.56;;;13.62;72.86
70781;BME280;59514;48.810;2.134;2023-05-12T08:23:32;100363.91;;;13.55;74.32
70781;BME280;59514;48.810;2.134;2023-05-12T08:25:58;100375.28;;;13.73;74.42
70781;BME280;59514;48.810;2.134;2023-05-12T08:28:23;100372.25;;;13.70;74.38
70781;BME280;59514;48.810;2.134;2023-05-12T08:30:49;100367.81;;;13.80;74.58
70781;BME280;59514;48.810;2.134;2023-05-12T08:33:14;100373.78;;;13.82;73.57
70781;BME280;59514;48.810;2.134;2023-05-12T08:35:39;100364.00;;;13.93;73.71
70781;BME280;59514;48.810;2.134;2023-05-12T08:38:05;100374.63;;;14.00;74.45
70781;BME280;59514;48.810;2.134;2023-05-12T08:40:33;100376.97;;;13.96;74.11
70781;BME280;59514;48.810;2.134;2023-05-12T08:43:41;100372.81;;;14.05;74.08
70781;BME280;59514;48.810;2.134;2023-05-12T08:46:07;100376.81;;;14.03;75.04
70781;BME280;59514;48.810;2.134;2023-05-12T08:48:33;100379.59;;;13.91;74.89
70781;BME280;59514;48.810;2.134;2023-05-12T08:51:01;100378.38;;;13.82;75.73
70781;BME280;59514;48.810;2.134;2023-05-12T08:53:28;100379.84;;;13.73;75.14
70781;BME280;59514;48.810;2.134;2023-05-12T08:55:54;100376.19;;;13.79;76.55
70781;BME280;59514;48.810;2.134;2023-05-12T08:58:20;100391.53;;;13.78;76.64
70781;BME280;59514;48.810;2.134;2023-05-12T09:00:46;100384.44;;;13.72;77.21
70781;BME280;59514;48.810;2.134;2023-05-12T09:03:12;100391.88;;;13.65;77.83
70781;BME280;59514;48.810;2.134;2023-05-12T09:05:39;100385.66;;;13.81;77.98
70781;BME280;59514;48.810;2.134;2023-05-12T09:08:05;100391.63;;;14.00;77.82
70781;BME280;59514;48.810;2.134;2023-05-12T09:10:30;100393.53;;;14.00;77.68
70781;BME280;59514;48.810;2.134;2023-05-12T09:13:03;100393.19;;;14.29;77.54
70781;BME280;59514;48.810;2.134;2023-05-12T09:15:38;100395.50;;;14.26;76.16
70781;BME280;59514;48.810;2.134;2023-05-12T09:18:05;100394.81;;;14.30;77.94
70781;BME280;59514;48.810;2.134;2023-05-12T09:20:30;100396.94;;;14.28;77.84
70781;BME280;59514;48.810;2.134;2023-05-12T09:22:56;100391.06;;;14.31;78.27
70781;BME280;59514;48.810;2.134;2023-05-12T09:25:22;100393.06;;;14.24;77.80
70781;BME280;59514;48.810;2.134;2023-05-12T09:27:48;100383.75;;;14.15;78.58
70781;BME280;59514;48.810;2.134;2023-05-12T09:30:30;100386.22;;;14.00;79.39
70781;BME280;59514;48.810;2.134;2023-05-12T09:33:10;100390.25;;;13.98;79.74
70781;BME280;59514;48.810;2.134;2023-05-12T09:35:40;100394.91;;;13.86;81.30
70781;BME280;59514;48.810;2.134;2023-05-12T09:38:07;100392.19;;;13.69;82.38
70781;BME280;59514;48.810;2.134;2023-05-12T09:40:32;100384.59;;;13.66;84.29
70781;BME280;59514;48.810;2.134;2023-05-12T09:42:58;100390.97;;;13.60;85.01
70781;BME280;59514;48.810;2.134;2023-05-12T09:45:23;100392.94;;;13.48;87.05
70781;BME280;59514;48.810;2.134;2023-05-12T09:47:48;100398.41;;;13.25;89.27
70781;BME280;59514;48.810;2.134;2023-05-12T09:50:14;100386.63;;;13.02;92.25
70781;BME280;59514;48.810;2.134;2023-05-12T09:52:39;100401.41;;;13.12;94.86
70781;BME280;59514;48.810;2.134;2023-05-12T09:55:06;100398.16;;;12.98;95.81
70781;BME280;59514;48.810;2.134;2023-05-12T09:57:34;100396.69;;;12.79;96.77
70781;BME280;59514;48.810;2.134;2023-05-12T10:00:04;100400.56;;;12.71;97.70
70781;BME280;59514;48.810;2.134;2023-05-12T10:02:31;100404.13;;;12.60;98.58
70781;BME280;59514;48.810;2.134;2023-05-12T10:05:01;100408.41;;;12.73;99.79
70781;BME280;59514;48.810;2.134;2023-05-12T10:07:30;100401.06;;;12.68;100.00
70781;BME280;59514;48.810;2.134;2023-05-12T10:10:00;100397.06;;;12.59;100.00
70781;BME280;59514;48.810;2.134;2023-05-12T10:12:27;100401.84;;;12.69;100.00
70781;BME280;59514;48.810;2.134;2023-05-12T10:14:53;100402.13;;;12.56;100.00
70781;BME280;59514;48.810;2.134;2023-05-12T10:17:19;100400.47;;;12.66;100.00
70781;BME280;59514;48.810;2.134;2023-05-12T10:19:46;100387.47;;;12.63;99.46
70781;BME280;59514;48.810;2.134;2023-05-12T10:22:14;100390.94;;;12.75;99.17
70781;BME280;59514;48.810;2.134;2023-05-12T10:24:40;100393.72;;;13.04;98.57
70781;BME280;59514;48.810;2.134;2023-05-12T10:27:06;100391.78;;;13.16;97.73
70781;BME280;59514;48.810;2.134;2023-05-12T10:29:33;100397.56;;;13.36;97.96
70781;BME280;59514;48.810;2.134;2023-05-12T10:31:59;100386.41;;;13.32;95.07
70781;BME280;59514;48.810;2.134;2023-05-12T10:34:43;100384.47;;;13.44;94.93
70781;BME280;59514;48.810;2.134;2023-05-12T10:37:09;100382.53;;;13.40;92.33
70781;BME280;59514;48.810;2.134;2023-05-12T10:39:36;100389.91;;;13.61;91.35
70781;BME280;59514;48.810;2.134;2023-05-12T10:42:06;100385.00;;;13.74;90.16
70781;BME280;59514;48.810;2.134;2023-05-12T10:44:32;100387.13;;;13.72;90.43
70781;BME280;59514;48.810;2.134;2023-05-12T10:46:58;100383.94;;;13.59;91.06
70781;BME280;59514;48.810;2.134;2023-05-12T10:49:34;100380.22;;;13.48;92.63
70781;BME280;59514;48.810;2.134;2023-05-12T10:52:03;100383.88;;;13.54;94.01
70781;BME280;59514;48.810;2.134;2023-05-12T10:54:36;100378.22;;;13.72;93.17
70781;BME280;59514;48.810;2.134;2023-05-12T10:57:11;100377.97;;;14.07;91.62
70781;BME280;59514;48.810;2.134;2023-05-12T10:59:50;100383.91;;;14.25;89.37
70781;BME280;59514;48.810;2.134;2023-05-12T11:02:17;100370.22;;;14.48;85.68
70781;BME280;59514;48.810;2.134;2023-05-12T11:04:53;100367.91;;;14.57;82.98
70781;BME280;59514;48.810;2.134;2023-05-12T11:07:22;100370.03;;;14.77;81.45
70781;BME280;59514;48.810;2.134;2023-05-12T11:09:48;100372.25;;;15.06;80.45
70781;BME280;59514;48.810;2.134;2023-05-12T11:12:14;100374.47;;;14.88;78.94
70781;BME280;59514;48.810;2.134;2023-05-12T11:14:42;100363.28;;;15.01;79.17
70781;BME280;59514;48.810;2.134;2023-05-12T11:17:08;100370.06;;;15.30;78.17
70781;BME280;59514;48.810;2.134;2023-05-12T11:19:34;100368.16;;;15.52;75.30
70781;BME280;59514;48.810;2.134;2023-05-12T11:22:07;100364.59;;;15.78;76.05
70781;BME280;59514;48.810;2.134;2023-05-12T11:24:34;100371.94;;;15.29;73.59
70781;BME280;59514;48.810;2.134;2023-05-12T11:27:00;100366.03;;;15.59;76.42
70781;BME280;59514;48.810;2.134;2023-05-12T11:29:25;100364.00;;;15.18;74.61
70781;BME280;59514;48.810;2.134;2023-05-12T11:31:51;100369.06;;;14.88;73.59
70781;BME280;59514;48.810;2.134;2023-05-12T11:34:22;100364.06;;;14.75;73.66
70781;BME280;59514;48.810;2.134;2023-05-12T11:36:50;100355.13;;;14.52;73.91
70781;BME280;59514;48.810;2.134;2023-05-12T11:39:17;100360.97;;;14.66;76.33
70781;BME280;59514;48.810;2.134;2023-05-12T11:41:43;100360.06;;;14.55;75.11
70781;BME280;59514;48.810;2.134;2023-05-12T11:44:20;100373.69;;;14.27;74.54
70781;BME280;59514;48.810;2.134;2023-05-12T11:47:04;100370.88;;;14.22;73.66
70781;BME280;59514;48.810;2.134;2023-05-12T11:49:49;100368.75;;;14.24;76.69
70781;BME280;59514;48.810;2.134;2023-05-12T11:52:15;100358.94;;;14.18;76.54
70781;BME280;59514;48.810;2.134;2023-05-12T11:54:49;100351.94;;;13.84;77.85
70781;BME280;59514;48.810;2.134;2023-05-12T11:57:34;100359.78;;;14.02;77.16
70781;BME280;59514;48.810;2.134;2023-05-12T12:00:04;100355.53;;;14.06;78.64
70781;BME280;59514;48.810;2.134;2023-05-12T12:02:31;100354.81;;;13.94;79.42
70781;BME280;59514;48.810;2.134;2023-05-12T12:04:57;100353.25;;;14.31;78.88
70781;BME280;59514;48.810;2.134;2023-05-12T12:07:29;100350.59;;;14.36;78.63
70781;BME280;59514;48.810;2.134;2023-05-12T12:09:55;100339.34;;;14.44;77.21
70781;BME280;59514;48.810;2.134;2023-05-12T12:12:21;100353.38;;;14.41;78.18
70781;BME280;59514;48.810;2.134;2023-05-12T12:14:46;100352.06;;;14.27;78.64
70781;BME280;59514;48.810;2.134;2023-05-12T12:17:11;100347.84;;;13.98;79.27
70781;BME280;59514;48.810;2.134;2023-05-12T12:19:37;100349.97;;;13.96;79.85
70781;BME280;59514;48.810;2.134;2023-05-12T12:22:02;100351.47;;;13.87;81.03
70781;BME280;59514;48.810;2.134;2023-05-12T12:24:27;100356.22;;;13.97;81.04
70781;BME280;59514;48.810;2.134;2023-05-12T12:26:53;100350.41;;;13.88;80.65
70781;BME280;59514;48.810;2.134;2023-05-12T12:29:18;100359.22;;;14.00;81.85
70781;BME280;59514;48.810;2.134;2023-05-12T12:31:44;100355.22;;;13.86;82.10
70781;BME280;59514;48.810;2.134;2023-05-12T12:34:10;100357.34;;;13.84;81.39
70781;BME280;59514;48.810;2.134;2023-05-12T12:36:35;100351.56;;;13.59;83.29
70781;BME280;59514;48.810;2.134;2023-05-12T12:39:01;100365.88;;;13.59;83.12
70781;BME280;59514;48.810;2.134;2023-05-12T12:41:27;100361.22;;;13.55;83.08
70781;BME280;59514;48.810;2.134;2023-05-12T12:43:53;100351.50;;;13.54;83.70
70781;BME280;59514;48.810;2.134;2023-05-12T12:46:18;100373.53;;;13.51;82.72
70781;BME280;59514;48.810;2.134;2023-05-12T12:48:44;100374.66;;;13.38;82.41